LFRQ/UIP METAR and TAF weather

Enter ICAO airport designator
Station Type Date Time Source
LFRQ METAR 2018/12/17 03:00 UTC NOAA

LFRQ 170300Z AUTO 25002KT CAVOK 06/05 Q1018


Station Type Date Time Source
LFRQ Decoded METAR 2018/12/17 03:00 UTC NOAA

Quimper, France (LFRQ) 47-58N 004-10W 94M
Dec 16, 2018 - 10:00 PM EST / 2018.12.17 0300 UTC
Wind: from the WSW (250 degrees) at 2 MPH (2 KT):0
Visibility: greater than 7 mile(s):0
Temperature: 42 F (6 C)
Dew Point: 41 F (5 C)
Relative Humidity: 93%
Pressure (altimeter): 30.06 in. Hg (1018 hPa)
ob: LFRQ 170300Z AUTO 25002KT CAVOK 06/05 Q1018
cycle: 3

Station Type Date Time Source
LFRQ TAF 2018/12/16 22:16 UTC NOAA

TAF LFRQ 162210Z 1622/1718 CNL


Example: see airport list